sensor_id;sensor_type;location;lat;lon;timestamp;temperature;humidity
32470;DHT22;18925;48.356;10.864;2022-08-01T00:00:31;21.00;98.40
32470;DHT22;18925;48.356;10.864;2022-08-01T00:01:02;21.00;98.40
32470;DHT22;18925;48.356;10.864;2022-08-01T00:01:33;21.00;98.50
32470;DHT22;18925;48.356;10.864;2022-08-01T00:02:03;21.00;98.40
32470;DHT22;18925;48.356;10.864;2022-08-01T00:02:34;21.00;98.40
32470;DHT22;18925;48.356;10.864;2022-08-01T00:03:05;21.00;98.40
32470;DHT22;18925;48.356;10.864;2022-08-01T00:03:35;21.00;98.30
32470;DHT22;18925;48.356;10.864;2022-08-01T00:04:06;21.00;98.40
32470;DHT22;18925;48.356;10.864;2022-08-01T00:04:36;21.00;98.50
32470;DHT22;18925;48.356;10.864;2022-08-01T00:05:08;21.00;98.50
32470;DHT22;18925;48.356;10.864;2022-08-01T00:05:39;21.00;98.50
32470;DHT22;18925;48.356;10.864;2022-08-01T00:06:10;21.00;98.50
32470;DHT22;18925;48.356;10.864;2022-08-01T00:06:40;20.90;98.50
32470;DHT22;18925;48.356;10.864;2022-08-01T00:07:11;21.00;98.60
32470;DHT22;18925;48.356;10.864;2022-08-01T00:07:41;20.90;98.60
32470;DHT22;18925;48.356;10.864;2022-08-01T00:08:12;20.90;98.60
32470;DHT22;18925;48.356;10.864;2022-08-01T00:08:43;20.90;98.90
32470;DHT22;18925;48.356;10.864;2022-08-01T00:09:13;20.90;98.60
32470;DHT22;18925;48.356;10.864;2022-08-01T00:09:44;20.90;98.60
32470;DHT22;18925;48.356;10.864;2022-08-01T00:10:16;20.90;98.70
32470;DHT22;18925;48.356;10.864;2022-08-01T00:10:46;20.90;98.60
32470;DHT22;18925;48.356;10.864;2022-08-01T00:11:17;20.90;98.60
32470;DHT22;18925;48.356;10.864;2022-08-01T00:11:48;20.90;98.70
32470;DHT22;18925;48.356;10.864;2022-08-01T00:12:18;20.90;98.70
32470;DHT22;18925;48.356;10.864;2022-08-01T00:12:49;20.90;98.60
32470;DHT22;18925;48.356;10.864;2022-08-01T00:13:19;20.90;98.60
32470;DHT22;18925;48.356;10.864;2022-08-01T00:13:50;20.90;98.70
32470;DHT22;18925;48.356;10.864;2022-08-01T00:14:21;20.90;98.70
32470;DHT22;18925;48.356;10.864;2022-08-01T00:14:51;20.90;98.70
32470;DHT22;18925;48.356;10.864;2022-08-01T00:15:22;20.90;98.70
32470;DHT22;18925;48.356;10.864;2022-08-01T00:15:53;20.90;98.80
32470;DHT22;18925;48.356;10.864;2022-08-01T00:16:23;20.90;98.80
32470;DHT22;18925;48.356;10.864;2022-08-01T00:16:54;20.90;98.70
32470;DHT22;18925;48.356;10.864;2022-08-01T00:17:25;20.90;98.80
32470;DHT22;18925;48.356;10.864;2022-08-01T00:17:55;20.90;98.80
32470;DHT22;18925;48.356;10.864;2022-08-01T00:18:26;20.90;98.90
32470;DHT22;18925;48.356;10.864;2022-08-01T00:18:57;20.90;98.90
32470;DHT22;18925;48.356;10.864;2022-08-01T00:19:27;20.90;98.90
32470;DHT22;18925;48.356;10.864;2022-08-01T00:19:58;20.90;98.90
32470;DHT22;18925;48.356;10.864;2022-08-01T00:20:29;20.80;98.90
32470;DHT22;18925;48.356;10.864;2022-08-01T00:20:59;20.80;98.90
32470;DHT22;18925;48.356;10.864;2022-08-01T00:21:30;20.80;98.90
32470;DHT22;18925;48.356;10.864;2022-08-01T00:22:00;20.80;98.90
32470;DHT22;18925;48.356;10.864;2022-08-01T00:22:32;20.80;98.80
32470;DHT22;18925;48.356;10.864;2022-08-01T00:23:03;20.80;98.90
32470;DHT22;18925;48.356;10.864;2022-08-01T00:23:33;20.80;98.90
32470;DHT22;18925;48.356;10.864;2022-08-01T00:24:04;20.80;99.00
32470;DHT22;18925;48.356;10.864;2022-08-01T00:24:35;20.80;99.00
32470;DHT22;18925;48.356;10.864;2022-08-01T00:25:06;20.80;99.00
32470;DHT22;18925;48.356;10.864;2022-08-01T00:25:37;20.80;98.90
32470;DHT22;18925;48.356;10.864;2022-08-01T00:26:07;20.80;98.90
32470;DHT22;18925;48.356;10.864;2022-08-01T00:26:38;20.70;99.00
32470;DHT22;18925;48.356;10.864;2022-08-01T00:27:08;20.70;99.00
32470;DHT22;18925;48.356;10.864;2022-08-01T00:27:39;20.70;99.00
32470;DHT22;18925;48.356;10.864;2022-08-01T00:28:10;20.80;99.00
32470;DHT22;18925;48.356;10.864;2022-08-01T00:28:41;20.80;99.10
32470;DHT22;18925;48.356;10.864;2022-08-01T00:29:11;20.70;99.10
32470;DHT22;18925;48.356;10.864;2022-08-01T00:29:42;20.80;99.10
32470;DHT22;18925;48.356;10.864;2022-08-01T00:30:13;20.70;99.00
32470;DHT22;18925;48.356;10.864;2022-08-01T00:30:43;20.70;99.10
32470;DHT22;18925;48.356;10.864;2022-08-01T00:31:14;20.70;99.10
32470;DHT22;18925;48.356;10.864;2022-08-01T00:31:44;20.80;99.10
32470;DHT22;18925;48.356;10.864;2022-08-01T00:32:15;20.70;99.00
32470;DHT22;18925;48.356;10.864;2022-08-01T00:32:46;20.70;98.90
32470;DHT22;18925;48.356;10.864;2022-08-01T00:33:16;20.70;99.00
32470;DHT22;18925;48.356;10.864;2022-08-01T00:33:47;20.70;99.00
32470;DHT22;18925;48.356;10.864;2022-08-01T00:34:18;20.70;99.00
32470;DHT22;18925;48.356;10.864;2022-08-01T00:34:48;20.70;99.00
32470;DHT22;18925;48.356;10.864;2022-08-01T00:35:19;20.70;99.10
32470;DHT22;18925;48.356;10.864;2022-08-01T00:35:49;20.70;99.00
32470;DHT22;18925;48.356;10.864;2022-08-01T00:36:20;20.60;99.00
32470;DHT22;18925;48.356;10.864;2022-08-01T00:36:51;20.60;99.10
32470;DHT22;18925;48.356;10.864;2022-08-01T00:37:21;20.60;99.10
32470;DHT22;18925;48.356;10.864;2022-08-01T00:37:52;20.60;99.00
32470;DHT22;18925;48.356;10.864;2022-08-01T00:38:23;20.60;99.10
32470;DHT22;18925;48.356;10.864;2022-08-01T00:38:53;20.60;99.20
32470;DHT22;18925;48.356;10.864;2022-08-01T00:39:24;20.60;99.20
32470;DHT22;18925;48.356;10.864;2022-08-01T00:39:54;20.60;99.20
32470;DHT22;18925;48.356;10.864;2022-08-01T00:40:25;20.60;99.20
32470;DHT22;18925;48.356;10.864;2022-08-01T00:40:56;20.60;99.20
32470;DHT22;18925;48.356;10.864;2022-08-01T00:41:26;20.60;99.30
32470;DHT22;18925;48.356;10.864;2022-08-01T00:41:57;20.60;99.30
32470;DHT22;18925;48.356;10.864;2022-08-01T00:42:28;20.60;99.30
32470;DHT22;18925;48.356;10.864;2022-08-01T00:42:58;20.60;99.30
32470;DHT22;18925;48.356;10.864;2022-08-01T00:43:29;20.60;99.40
32470;DHT22;18925;48.356;10.864;2022-08-01T00:44:03;20.60;99.40
32470;DHT22;18925;48.356;10.864;2022-08-01T00:44:34;20.60;99.40
32470;DHT22;18925;48.356;10.864;2022-08-01T00:45:06;20.60;99.40
32470;DHT22;18925;48.356;10.864;2022-08-01T00:45:36;20.60;99.50
32470;DHT22;18925;48.356;10.864;2022-08-01T00:46:07;20.50;99.40
32470;DHT22;18925;48.356;10.864;2022-08-01T00:46:38;20.50;99.50
32470;DHT22;18925;48.356;10.864;2022-08-01T00:47:08;20.50;99.50
32470;DHT22;18925;48.356;10.864;2022-08-01T00:47:39;20.50;99.50
32470;DHT22;18925;48.356;10.864;2022-08-01T00:48:10;20.50;99.50
32470;DHT22;18925;48.356;10.864;2022-08-01T00:48:41;20.50;99.60
32470;DHT22;18925;48.356;10.864;2022-08-01T00:49:11;20.40;99.60
32470;DHT22;18925;48.356;10.864;2022-08-01T00:49:42;20.50;99.70
32470;DHT22;18925;48.356;10.864;2022-08-01T00:50:13;20.40;99.70
32470;DHT22;18925;48.356;10.864;2022-08-01T00:50:43;20.50;99.70
32470;DHT22;18925;48.356;10.864;2022-08-01T00:51:14;20.50;99.70
32470;DHT22;18925;48.356;10.864;2022-08-01T00:51:46;20.40;99.70
32470;DHT22;18925;48.356;10.864;2022-08-01T00:52:17;20.40;99.80
32470;DHT22;18925;48.356;10.864;2022-08-01T00:52:48;20.40;99.80
32470;DHT22;18925;48.356;10.864;2022-08-01T00:53:19;20.40;99.80
32470;DHT22;18925;48.356;10.864;2022-08-01T00:53:50;20.40;99.80
32470;DHT22;18925;48.356;10.864;2022-08-01T00:54:23;20.40;99.90
32470;DHT22;18925;48.356;10.864;2022-08-01T00:54:54;20.40;99.90
32470;DHT22;18925;48.356;10.864;2022-08-01T00:55:25;20.40;99.90
32470;DHT22;18925;48.356;10.864;2022-08-01T00:55:56;20.30;99.90
32470;DHT22;18925;48.356;10.864;2022-08-01T00:56:27;20.30;99.90
32470;DHT22;18925;48.356;10.864;2022-08-01T00:56:58;20.30;99.90
32470;DHT22;18925;48.356;10.864;2022-08-01T00:57:29;20.30;99.90
32470;DHT22;18925;48.356;10.864;2022-08-01T00:58:00;20.40;99.90
32470;DHT22;18925;48.356;10.864;2022-08-01T00:58:31;20.30;99.90
32470;DHT22;18925;48.356;10.864;2022-08-01T00:59:03;20.30;99.90
32470;DHT22;18925;48.356;10.864;2022-08-01T00:59:34;20.30;99.90
32470;DHT22;18925;48.356;10.864;2022-08-01T01:00:05;20.30;99.90
32470;DHT22;18925;48.356;10.864;2022-08-01T01:00:36;20.30;99.90
32470;DHT22;18925;48.356;10.864;2022-08-01T01:01:07;20.30;99.90
32470;DHT22;18925;48.356;10.864;2022-08-01T01:01:38;20.30;99.90
32470;DHT22;18925;48.356;10.864;2022-08-01T01:02:08;20.30;99.90
32470;DHT22;18925;48.356;10.864;2022-08-01T01:02:39;20.30;99.90
32470;DHT22;18925;48.356;10.864;2022-08-01T01:03:10;20.30;99.90
32470;DHT22;18925;48.356;10.864;2022-08-01T01:03:40;20.30;99.90
32470;DHT22;18925;48.356;10.864;2022-08-01T01:04:11;20.30;99.90
32470;DHT22;18925;48.356;10.864;2022-08-01T01:04:42;20.20;99.90
32470;DHT22;18925;48.356;10.864;2022-08-01T01:05:13;20.30;99.90
32470;DHT22;18925;48.356;10.864;2022-08-01T01:05:51;20.30;99.90
32470;DHT22;18925;48.356;10.864;2022-08-01T01:08:04;20.20;99.90
32470;DHT22;18925;48.356;10.864;2022-08-01T01:08:43;20.20;99.90
32470;DHT22;18925;48.356;10.864;2022-08-01T01:10:00;20.20;99.90
32470;DHT22;18925;48.356;10.864;2022-08-01T01:10:47;20.20;99.90
32470;DHT22;18925;48.356;10.864;2022-08-01T01:11:30;20.20;99.90
32470;DHT22;18925;48.356;10.864;2022-08-01T01:12:55;20.10;99.90
32470;DHT22;18925;48.356;10.864;2022-08-01T01:13:42;20.10;99.90
32470;DHT22;18925;48.356;10.864;2022-08-01T01:14:23;20.10;99.90
32470;DHT22;18925;48.356;10.864;2022-08-01T01:15:49;20.10;99.90
32470;DHT22;18925;48.356;10.864;2022-08-01T01:16:22;20.10;99.90
32470;DHT22;18925;48.356;10.864;2022-08-01T01:16:53;20.10;99.90
32470;DHT22;18925;48.356;10.864;2022-08-01T01:17:28;20.10;99.90
32470;DHT22;18925;48.356;10.864;2022-08-01T01:18:22;20.10;99.90
32470;DHT22;18925;48.356;10.864;2022-08-01T01:18:55;20.00;99.90
32470;DHT22;18925;48.356;10.864;2022-08-01T01:19:30;20.00;99.90
32470;DHT22;18925;48.356;10.864;2022-08-01T01:20:03;20.00;99.90
32470;DHT22;18925;48.356;10.864;2022-08-01T01:20:38;20.00;99.90
32470;DHT22;18925;48.356;10.864;2022-08-01T01:22:01;20.00;99.90
32470;DHT22;18925;48.356;10.864;2022-08-01T01:23:23;20.00;99.90
32470;DHT22;18925;48.356;10.864;2022-08-01T01:24:49;20.00;99.90
32470;DHT22;18925;48.356;10.864;2022-08-01T01:27:58;20.00;99.90
32470;DHT22;18925;48.356;10.864;2022-08-01T01:29:26;20.00;99.90
32470;DHT22;18925;48.356;10.864;2022-08-01T01:29:59;20.00;99.90
32470;DHT22;18925;48.356;10.864;2022-08-01T01:30:31;20.00;99.90
32470;DHT22;18925;48.356;10.864;2022-08-01T01:31:06;19.90;99.90
32470;DHT22;18925;48.356;10.864;2022-08-01T01:32:04;20.00;99.90
32470;DHT22;18925;48.356;10.864;2022-08-01T01:32:36;20.00;99.90
32470;DHT22;18925;48.356;10.864;2022-08-01T01:33:10;20.00;99.90
32470;DHT22;18925;48.356;10.864;2022-08-01T01:33:41;20.00;99.90
32470;DHT22;18925;48.356;10.864;2022-08-01T01:34:13;20.00;99.90
32470;DHT22;18925;48.356;10.864;2022-08-01T01:34:49;20.00;99.90
32470;DHT22;18925;48.356;10.864;2022-08-01T01:35:24;20.00;99.90
32470;DHT22;18925;48.356;10.864;2022-08-01T01:35:59;20.00;99.90
32470;DHT22;18925;48.356;10.864;2022-08-01T01:36:32;20.00;99.90
32470;DHT22;18925;48.356;10.864;2022-08-01T01:37:06;20.00;99.90
32470;DHT22;18925;48.356;10.864;2022-08-01T01:37:39;20.00;99.90
32470;DHT22;18925;48.356;10.864;2022-08-01T01:38:20;20.00;99.90
32470;DHT22;18925;48.356;10.864;2022-08-01T01:38:52;20.00;99.90
32470;DHT22;18925;48.356;10.864;2022-08-01T01:39:25;20.00;99.90
32470;DHT22;18925;48.356;10.864;2022-08-01T01:39:58;20.00;99.90
32470;DHT22;18925;48.356;10.864;2022-08-01T01:40:30;19.90;99.90
32470;DHT22;18925;48.356;10.864;2022-08-01T01:41:02;20.00;99.90
32470;DHT22;18925;48.356;10.864;2022-08-01T01:41:36;20.00;99.90
32470;DHT22;18925;48.356;10.864;2022-08-01T01:42:08;20.00;99.90
32470;DHT22;18925;48.356;10.864;2022-08-01T01:42:41;19.90;99.90
32470;DHT22;18925;48.356;10.864;2022-08-01T01:43:13;19.90;99.90
32470;DHT22;18925;48.356;10.864;2022-08-01T01:43:46;20.00;99.90
32470;DHT22;18925;48.356;10.864;2022-08-01T01:44:18;19.90;99.90
32470;DHT22;18925;48.356;10.864;2022-08-01T01:44:50;19.90;99.90
32470;DHT22;18925;48.356;10.864;2022-08-01T01:45:23;19.90;99.90
32470;DHT22;18925;48.356;10.864;2022-08-01T01:45:56;19.90;99.90
32470;DHT22;18925;48.356;10.864;2022-08-01T01:46:28;19.90;99.90
32470;DHT22;18925;48.356;10.864;2022-08-01T01:47:00;19.90;99.90
32470;DHT22;18925;48.356;10.864;2022-08-01T01:47:32;19.90;99.90
32470;DHT22;18925;48.356;10.864;2022-08-01T01:48:04;19.90;99.90
32470;DHT22;18925;48.356;10.864;2022-08-01T01:48:37;19.90;99.90
32470;DHT22;18925;48.356;10.864;2022-08-01T01:49:09;19.90;99.90
32470;DHT22;18925;48.356;10.864;2022-08-01T01:49:43;19.90;99.90
32470;DHT22;18925;48.356;10.864;2022-08-01T01:50:15;19.90;99.90
32470;DHT22;18925;48.356;10.864;2022-08-01T01:50:47;19.90;99.90
32470;DHT22;18925;48.356;10.864;2022-08-01T01:51:21;19.90;99.90
32470;DHT22;18925;48.356;10.864;2022-08-01T01:51:55;19.90;99.90
32470;DHT22;18925;48.356;10.864;2022-08-01T01:52:26;19.90;99.90
32470;DHT22;18925;48.356;10.864;2022-08-01T01:52:59;19.90;99.90
32470;DHT22;18925;48.356;10.864;2022-08-01T01:53:33;19.90;99.90
32470;DHT22;18925;48.356;10.864;2022-08-01T01:54:04;19.90;99.90
32470;DHT22;18925;48.356;10.864;2022-08-01T01:54:40;19.80;99.90
32470;DHT22;18925;48.356;10.864;2022-08-01T01:55:13;19.90;99.90
32470;DHT22;18925;48.356;10.864;2022-08-01T01:55:48;19.80;99.90
32470;DHT22;18925;48.356;10.864;2022-08-01T01:56:20;19.80;99.90
32470;DHT22;18925;48.356;10.864;2022-08-01T01:56:52;19.90;99.90
32470;DHT22;18925;48.356;10.864;2022-08-01T01:57:23;19.80;99.90
32470;DHT22;18925;48.356;10.864;2022-08-01T01:57:56;19.90;99.90
32470;DHT22;18925;48.356;10.864;2022-08-01T01:58:31;19.90;99.90
32470;DHT22;18925;48.356;10.864;2022-08-01T01:59:04;19.90;99.90
32470;DHT22;18925;48.356;10.864;2022-08-01T01:59:36;19.80;99.90
32470;DHT22;18925;48.356;10.864;2022-08-01T02:00:10;19.90;99.90
32470;DHT22;18925;48.356;10.864;2022-08-01T02:00:42;19.90;99.90
32470;DHT22;18925;48.356;10.864;2022-08-01T02:01:14;19.90;99.90
32470;DHT22;18925;48.356;10.864;2022-08-01T02:01:47;19.90;99.90
32470;DHT22;18925;48.356;10.864;2022-08-01T02:02:20;19.90;99.90
32470;DHT22;18925;48.356;10.864;2022-08-01T02:02:54;19.90;99.90
32470;DHT22;18925;48.356;10.864;2022-08-01T02:03:28;19.90;99.90
32470;DHT22;18925;48.356;10.864;2022-08-01T02:04:00;19.90;99.90
32470;DHT22;18925;48.356;10.864;2022-08-01T02:04:35;19.90;99.90
32470;DHT22;18925;48.356;10.864;2022-08-01T02:05:09;19.90;99.90
32470;DHT22;18925;48.356;10.864;2022-08-01T02:05:41;19.80;99.90
32470;DHT22;18925;48.356;10.864;2022-08-01T02:06:13;19.90;99.80
32470;DHT22;18925;48.356;10.864;2022-08-01T02:06:46;19.90;99.70
32470;DHT22;18925;48.356;10.864;2022-08-01T02:07:20;19.90;99.70
32470;DHT22;18925;48.356;10.864;2022-08-01T02:07:52;19.90;99.60
32470;DHT22;18925;48.356;10.864;2022-08-01T02:08:24;19.90;99.60
32470;DHT22;18925;48.356;10.864;2022-08-01T02:08:55;19.90;99.60
32470;DHT22;18925;48.356;10.864;2022-08-01T02:09:27;19.90;99.40
32470;DHT22;18925;48.356;10.864;2022-08-01T02:10:00;20.00;99.50
32470;DHT22;18925;48.356;10.864;2022-08-01T02:10:32;19.90;99.40
32470;DHT22;18925;48.356;10.864;2022-08-01T02:11:04;20.00;99.40
32470;DHT22;18925;48.356;10.864;2022-08-01T02:11:52;20.00;99.40
32470;DHT22;18925;48.356;10.864;2022-08-01T02:12:24;19.90;99.20
32470;DHT22;18925;48.356;10.864;2022-08-01T02:12:59;19.90;99.20
32470;DHT22;18925;48.356;10.864;2022-08-01T02:13:34;19.90;99.30
32470;DHT22;18925;48.356;10.864;2022-08-01T02:14:08;19.90;99.10
32470;DHT22;18925;48.356;10.864;2022-08-01T02:14:40;19.90;99.20
32470;DHT22;18925;48.356;10.864;2022-08-01T02:15:12;19.90;99.00
32470;DHT22;18925;48.356;10.864;2022-08-01T02:15:44;19.90;99.00
32470;DHT22;18925;48.356;10.864;2022-08-01T02:16:16;19.90;99.10
32470;DHT22;18925;48.356;10.864;2022-08-01T02:16:49;20.00;99.10
32470;DHT22;18925;48.356;10.864;2022-08-01T02:17:21;19.90;99.00
32470;DHT22;18925;48.356;10.864;2022-08-01T02:17:54;19.90;99.00
32470;DHT22;18925;48.356;10.864;2022-08-01T02:18:26;20.00;99.00
32470;DHT22;18925;48.356;10.864;2022-08-01T02:18:57;20.00;99.00
32470;DHT22;18925;48.356;10.864;2022-08-01T02:19:28;20.00;98.90
32470;DHT22;18925;48.356;10.864;2022-08-01T02:20:00;20.00;98.90
32470;DHT22;18925;48.356;10.864;2022-08-01T02:20:30;20.00;98.90
32470;DHT22;18925;48.356;10.864;2022-08-01T02:21:09;20.00;98.90
32470;DHT22;18925;48.356;10.864;2022-08-01T02:22:41;20.00;98.90
32470;DHT22;18925;48.356;10.864;2022-08-01T02:23:13;20.00;98.80
32470;DHT22;18925;48.356;10.864;2022-08-01T02:23:43;20.00;98.80
32470;DHT22;18925;48.356;10.864;2022-08-01T02:24:40;20.00;98.80
32470;DHT22;18925;48.356;10.864;2022-08-01T02:25:25;20.00;98.60
32470;DHT22;18925;48.356;10.864;2022-08-01T02:25:57;20.00;98.70
32470;DHT22;18925;48.356;10.864;2022-08-01T02:26:29;20.00;98.70
32470;DHT22;18925;48.356;10.864;2022-08-01T02:27:08;20.00;98.70
32470;DHT22;18925;48.356;10.864;2022-08-01T02:28:01;20.00;98.70
32470;DHT22;18925;48.356;10.864;2022-08-01T02:28:50;20.00;98.80
32470;DHT22;18925;48.356;10.864;2022-08-01T02:29:27;20.00;98.60
32470;DHT22;18925;48.356;10.864;2022-08-01T02:30:05;20.00;98.70
32470;DHT22;18925;48.356;10.864;2022-08-01T02:30:39;20.00;98.60
32470;DHT22;18925;48.356;10.864;2022-08-01T02:31:13;20.00;98.60
32470;DHT22;18925;48.356;10.864;2022-08-01T02:31:45;20.00;98.60
32470;DHT22;18925;48.356;10.864;2022-08-01T02:32:40;20.00;98.60
32470;DHT22;18925;48.356;10.864;2022-08-01T02:33:19;20.00;98.50
32470;DHT22;18925;48.356;10.864;2022-08-01T02:34:02;20.00;98.40
32470;DHT22;18925;48.356;10.864;2022-08-01T02:34:35;20.00;98.50
32470;DHT22;18925;48.356;10.864;2022-08-01T02:35:09;20.00;98.40
32470;DHT22;18925;48.356;10.864;2022-08-01T02:35:44;20.00;98.40
32470;DHT22;18925;48.356;10.864;2022-08-01T02:36:16;20.00;98.40
32470;DHT22;18925;48.356;10.864;2022-08-01T02:36:49;20.00;98.40
32470;DHT22;18925;48.356;10.864;2022-08-01T02:37:21;20.00;98.50
32470;DHT22;18925;48.356;10.864;2022-08-01T02:37:55;20.00;98.40
32470;DHT22;18925;48.356;10.864;2022-08-01T02:38:28;20.00;98.40
32470;DHT22;18925;48.356;10.864;2022-08-01T02:39:06;20.00;98.50
32470;DHT22;18925;48.356;10.864;2022-08-01T02:39:38;20.00;98.70
32470;DHT22;18925;48.356;10.864;2022-08-01T02:40:11;20.00;98.40
32470;DHT22;18925;48.356;10.864;2022-08-01T02:40:45;20.00;98.40
32470;DHT22;18925;48.356;10.864;2022-08-01T02:41:20;20.00;98.40
32470;DHT22;18925;48.356;10.864;2022-08-01T02:41:57;20.00;98.50
32470;DHT22;18925;48.356;10.864;2022-08-01T02:42:28;20.00;98.40
32470;DHT22;18925;48.356;10.864;2022-08-01T02:43:02;20.00;98.40
32470;DHT22;18925;48.356;10.864;2022-08-01T02:43:36;20.00;98.40
32470;DHT22;18925;48.356;10.864;2022-08-01T02:44:09;20.00;98.40
32470;DHT22;18925;48.356;10.864;2022-08-01T02:44:42;20.00;98.50
32470;DHT22;18925;48.356;10.864;2022-08-01T02:45:15;20.00;98.50
32470;DHT22;18925;48.356;10.864;2022-08-01T02:45:51;20.00;98.60
32470;DHT22;18925;48.356;10.864;2022-08-01T02:46:27;20.00;98.40
32470;DHT22;18925;48.356;10.864;2022-08-01T02:47:02;20.00;98.50
32470;DHT22;18925;48.356;10.864;2022-08-01T02:47:33;19.90;98.50
32470;DHT22;18925;48.356;10.864;2022-08-01T02:48:10;19.90;98.60
32470;DHT22;18925;48.356;10.864;2022-08-01T02:48:42;20.00;98.60
32470;DHT22;18925;48.356;10.864;2022-08-01T02:49:14;19.90;98.60
32470;DHT22;18925;48.356;10.864;2022-08-01T02:49:48;19.90;98.50
32470;DHT22;18925;48.356;10.864;2022-08-01T02:50:20;19.90;98.50
32470;DHT22;18925;48.356;10.864;2022-08-01T02:50:54;20.00;98.60
32470;DHT22;18925;48.356;10.864;2022-08-01T02:51:25;19.90;98.40
32470;DHT22;18925;48.356;10.864;2022-08-01T02:51:57;19.90;98.50
32470;DHT22;18925;48.356;10.864;2022-08-01T02:52:30;19.90;98.50
32470;DHT22;18925;48.356;10.864;2022-08-01T02:53:02;19.90;98.50
32470;DHT22;18925;48.356;10.864;2022-08-01T02:53:36;19.90;98.60
32470;DHT22;18925;48.356;10.864;2022-08-01T02:54:10;19.90;98.50
32470;DHT22;18925;48.356;10.864;2022-08-01T02:54:43;19.90;98.50
32470;DHT22;18925;48.356;10.864;2022-08-01T02:55:16;19.90;98.60
32470;DHT22;18925;48.356;10.864;2022-08-01T02:55:48;19.90;98.60
32470;DHT22;18925;48.356;10.864;2022-08-01T02:56:21;19.90;98.60
32470;DHT22;18925;48.356;10.864;2022-08-01T02:56:53;19.90;98.50
32470;DHT22;18925;48.356;10.864;2022-08-01T02:57:25;19.90;98.60
32470;DHT22;18925;48.356;10.864;2022-08-01T02:57:57;19.90;98.60
32470;DHT22;18925;48.356;10.864;2022-08-01T02:58:29;19.90;98.60
32470;DHT22;18925;48.356;10.864;2022-08-01T02:59:11;19.90;98.70
32470;DHT22;18925;48.356;10.864;2022-08-01T02:59:43;19.90;98.70
32470;DHT22;18925;48.356;10.864;2022-08-01T03:00:15;19.90;98.50
32470;DHT22;18925;48.356;10.864;2022-08-01T03:00:47;19.90;98.60
32470;DHT22;18925;48.356;10.864;2022-08-01T03:01:18;19.90;98.70
32470;DHT22;18925;48.356;10.864;2022-08-01T03:01:53;19.90;98.70
32470;DHT22;18925;48.356;10.864;2022-08-01T03:02:24;19.90;98.70
32470;DHT22;18925;48.356;10.864;2022-08-01T03:02:57;19.90;98.60
32470;DHT22;18925;48.356;10.864;2022-08-01T03:03:29;19.90;98.60
32470;DHT22;18925;48.356;10.864;2022-08-01T03:04:00;19.90;98.70
32470;DHT22;18925;48.356;10.864;2022-08-01T03:04:34;19.80;98.70
32470;DHT22;18925;48.356;10.864;2022-08-01T03:05:07;19.80;98.70
32470;DHT22;18925;48.356;10.864;2022-08-01T03:05:39;19.80;98.80
32470;DHT22;18925;48.356;10.864;2022-08-01T03:06:11;19.80;98.70
32470;DHT22;18925;48.356;10.864;2022-08-01T03:06:42;19.80;98.70
32470;DHT22;18925;48.356;10.864;2022-08-01T03:07:14;19.80;98.70
32470;DHT22;18925;48.356;10.864;2022-08-01T03:07:46;19.80;98.80
32470;DHT22;18925;48.356;10.864;2022-08-01T03:08:18;19.80;98.80
32470;DHT22;18925;48.356;10.864;2022-08-01T03:08:51;19.80;98.90
32470;DHT22;18925;48.356;10.864;2022-08-01T03:09:22;19.80;98.90
32470;DHT22;18925;48.356;10.864;2022-08-01T03:09:53;19.80;98.80
32470;DHT22;18925;48.356;10.864;2022-08-01T03:10:27;19.80;98.90
32470;DHT22;18925;48.356;10.864;2022-08-01T03:10:59;19.80;98.90
32470;DHT22;18925;48.356;10.864;2022-08-01T03:11:31;19.80;98.90
32470;DHT22;18925;48.356;10.864;2022-08-01T03:12:06;19.80;98.80
32470;DHT22;18925;48.356;10.864;2022-08-01T03:12:38;19.70;98.90
32470;DHT22;18925;48.356;10.864;2022-08-01T03:13:10;19.80;98.90
32470;DHT22;18925;48.356;10.864;2022-08-01T03:13:43;19.80;98.90
32470;DHT22;18925;48.356;10.864;2022-08-01T03:14:15;19.70;98.90
32470;DHT22;18925;48.356;10.864;2022-08-01T03:14:48;19.70;98.90
32470;DHT22;18925;48.356;10.864;2022-08-01T03:15:19;19.70;99.00
32470;DHT22;18925;48.356;10.864;2022-08-01T03:15:52;19.70;99.00
32470;DHT22;18925;48.356;10.864;2022-08-01T03:16:25;19.70;99.00
32470;DHT22;18925;48.356;10.864;2022-08-01T03:16:58;19.70;99.00
32470;DHT22;18925;48.356;10.864;2022-08-01T03:17:30;19.70;99.40
32470;DHT22;18925;48.356;10.864;2022-08-01T03:18:03;19.70;99.00
32470;DHT22;18925;48.356;10.864;2022-08-01T03:18:35;19.70;99.00
32470;DHT22;18925;48.356;10.864;2022-08-01T03:19:08;19.70;99.00
32470;DHT22;18925;48.356;10.864;2022-08-01T03:19:40;19.70;99.10
32470;DHT22;18925;48.356;10.864;2022-08-01T03:20:14;19.70;99.10
32470;DHT22;18925;48.356;10.864;2022-08-01T03:20:45;19.70;99.10
32470;DHT22;18925;48.356;10.864;2022-08-01T03:21:17;19.70;99.10
32470;DHT22;18925;48.356;10.864;2022-08-01T03:21:50;19.60;99.10
32470;DHT22;18925;48.356;10.864;2022-08-01T03:22:23;19.60;99.20
32470;DHT22;18925;48.356;10.864;2022-08-01T03:22:56;19.60;99.30
32470;DHT22;18925;48.356;10.864;2022-08-01T03:23:30;19.60;99.30
32470;DHT22;18925;48.356;10.864;2022-08-01T03:24:04;19.60;99.70
32470;DHT22;18925;48.356;10.864;2022-08-01T03:24:38;19.60;99.40
32470;DHT22;18925;48.356;10.864;2022-08-01T03:25:10;19.60;99.40
32470;DHT22;18925;48.356;10.864;2022-08-01T03:25:44;19.60;99.40
32470;DHT22;18925;48.356;10.864;2022-08-01T03:26:15;19.60;99.40
32470;DHT22;18925;48.356;10.864;2022-08-01T03:26:47;19.50;99.50
32470;DHT22;18925;48.356;10.864;2022-08-01T03:27:23;19.60;99.50
32470;DHT22;18925;48.356;10.864;2022-08-01T03:27:58;19.60;99.50
32470;DHT22;18925;48.356;10.864;2022-08-01T03:28:30;19.60;99.60
32470;DHT22;18925;48.356;10.864;2022-08-01T03:29:10;19.50;99.50
32470;DHT22;18925;48.356;10.864;2022-08-01T03:29:43;19.50;99.50
32470;DHT22;18925;48.356;10.864;2022-08-01T03:30:15;19.50;99.60
32470;DHT22;18925;48.356;10.864;2022-08-01T03:30:47;19.50;99.70
32470;DHT22;18925;48.356;10.864;2022-08-01T03:31:20;19.50;99.60
32470;DHT22;18925;48.356;10.864;2022-08-01T03:31:51;19.50;99.70
32470;DHT22;18925;48.356;10.864;2022-08-01T03:32:23;19.50;99.70
32470;DHT22;18925;48.356;10.864;2022-08-01T03:32:55;19.50;99.80
32470;DHT22;18925;48.356;10.864;2022-08-01T03:33:26;19.40;99.70
32470;DHT22;18925;48.356;10.864;2022-08-01T03:33:56;19.50;99.80
32470;DHT22;18925;48.356;10.864;2022-08-01T03:34:28;19.50;99.80
32470;DHT22;18925;48.356;10.864;2022-08-01T03:34:59;19.40;99.80
32470;DHT22;18925;48.356;10.864;2022-08-01T03:35:46;19.40;99.80